createdAt,value
2022-08-18T00:00:54.491Z,21.34
2022-08-18T00:03:10.544Z,21.32
2022-08-18T00:05:22.887Z,21.28
2022-08-18T00:07:29.604Z,21.27
2022-08-18T00:09:32.758Z,21.20
2022-08-18T00:11:52.920Z,21.23
2022-08-18T00:13:54.798Z,21.24
2022-08-18T00:15:56.507Z,21.23
2022-08-18T00:17:58.362Z,21.20
2022-08-18T00:20:00.312Z,21.23
2022-08-18T00:22:02.021Z,21.23
2022-08-18T00:24:04.614Z,21.13
2022-08-18T00:26:11.965Z,21.17
2022-08-18T00:28:14.277Z,21.18
2022-08-18T00:30:20.097Z,21.20
2022-08-18T00:32:33.879Z,21.20
2022-08-18T00:34:36.030Z,21.22
2022-08-18T00:36:40.094Z,21.23
2022-08-18T00:38:42.088Z,21.22
2022-08-18T00:40:50.029Z,21.25
2022-08-18T00:42:56.308Z,21.21
2022-08-18T00:45:02.247Z,21.19
2022-08-18T00:47:04.200Z,21.20
2022-08-18T00:49:06.312Z,21.20
2022-08-18T00:51:13.323Z,21.22
2022-08-18T00:53:27.741Z,21.20
2022-08-18T00:55:32.684Z,21.22
2022-08-18T00:57:35.949Z,21.20
2022-08-18T00:59:44.095Z,21.23
2022-08-18T01:01:52.157Z,21.22
2022-08-18T01:04:00.428Z,21.19
2022-08-18T01:06:06.812Z,21.21
2022-08-18T01:08:14.551Z,21.25
2022-08-18T01:10:21.070Z,21.26
2022-08-18T01:12:44.207Z,21.20
2022-08-18T01:14:46.615Z,21.26
2022-08-18T01:17:09.368Z,21.19
2022-08-18T01:19:30.074Z,21.22
2022-08-18T01:22:00.104Z,21.25
2022-08-18T01:24:05.922Z,21.24
2022-08-18T01:26:09.559Z,21.25
2022-08-18T01:28:20.193Z,21.24
2022-08-18T01:30:25.702Z,21.22
2022-08-18T01:32:28.399Z,21.24
2022-08-18T01:34:30.518Z,21.21
2022-08-18T01:36:37.594Z,21.21
2022-08-18T01:38:40.909Z,21.22
2022-08-18T01:41:23.806Z,21.22
2022-08-18T01:43:05.665Z,21.25
2022-08-18T01:45:08.626Z,21.20
2022-08-18T01:47:12.314Z,21.23
2022-08-18T01:49:14.765Z,21.23
2022-08-18T01:51:18.861Z,21.18
2022-08-18T01:53:20.807Z,21.19
2022-08-18T01:55:28.496Z,21.16
2022-08-18T01:57:30.652Z,21.18
2022-08-18T01:59:32.888Z,21.20
2022-08-18T02:01:45.249Z,21.19
2022-08-18T02:04:23.386Z,21.17
2022-08-18T02:06:33.514Z,21.21
2022-08-18T02:08:38.894Z,21.23
2022-08-18T02:10:46.925Z,21.24
2022-08-18T02:12:48.870Z,21.16
2022-08-18T02:14:52.070Z,21.21
2022-08-18T02:16:59.441Z,21.24
2022-08-18T02:19:04.403Z,21.24
2022-08-18T02:21:18.897Z,21.21
2022-08-18T02:23:21.685Z,21.19
2022-08-18T02:25:23.573Z,21.23
2022-08-18T02:27:27.244Z,21.24
2022-08-18T02:29:29.453Z,21.11
2022-08-18T02:31:31.614Z,21.17
2022-08-18T02:33:34.360Z,21.15
2022-08-18T02:35:37.421Z,21.18
2022-08-18T02:37:50.481Z,21.14
2022-08-18T02:39:56.724Z,21.16
2022-08-18T02:41:58.673Z,21.17
2022-08-18T02:44:00.713Z,21.17
2022-08-18T02:46:02.957Z,21.16
2022-08-18T02:48:05.921Z,21.17
2022-08-18T02:50:08.184Z,21.17
2022-08-18T02:52:12.890Z,21.17
2022-08-18T02:54:14.794Z,21.17
2022-08-18T02:56:39.918Z,21.17
2022-08-18T02:58:43.666Z,21.18
2022-08-18T03:00:46.936Z,21.17
2022-08-18T03:02:51.740Z,21.16
2022-08-18T03:04:53.764Z,21.17
2022-08-18T03:06:56.455Z,21.18
2022-08-18T03:08:58.477Z,21.16
2022-08-18T03:11:00.479Z,21.17
2022-08-18T03:13:02.889Z,21.17
2022-08-18T03:15:05.213Z,21.15
2022-08-18T03:17:09.305Z,21.10
2022-08-18T03:19:13.023Z,21.08
2022-08-18T03:21:18.630Z,21.08
2022-08-18T03:23:20.628Z,21.09
2022-08-18T03:25:32.201Z,21.05
2022-08-18T03:27:34.066Z,21.11
2022-08-18T03:29:36.982Z,21.11
2022-08-18T03:31:39.310Z,21.15
2022-08-18T03:33:45.604Z,21.13
2022-08-18T03:35:47.693Z,21.15
2022-08-18T03:37:51.009Z,21.16
2022-08-18T03:39:53.235Z,21.14
2022-08-18T03:41:58.508Z,21.12
2022-08-18T03:44:03.118Z,21.12
2022-08-18T03:46:07.383Z,21.13
2022-08-18T03:48:10.409Z,21.16
2022-08-18T03:50:14.109Z,21.10
2022-08-18T03:52:16.602Z,21.11
2022-08-18T03:54:18.614Z,21.06
2022-08-18T03:56:24.752Z,21.11
2022-08-18T03:58:34.300Z,21.07
2022-08-18T04:00:39.233Z,21.07
2022-08-18T04:02:41.558Z,21.02
2022-08-18T04:04:43.513Z,21.01
2022-08-18T04:06:54.318Z,21.03
2022-08-18T04:08:58.639Z,21.06
2022-08-18T04:11:00.700Z,21.08
2022-08-18T04:13:05.629Z,21.06
2022-08-18T04:15:08.117Z,21.05
2022-08-18T04:17:10.694Z,21.07
2022-08-18T04:19:14.497Z,20.96
2022-08-18T04:21:31.676Z,21.01
2022-08-18T04:23:44.155Z,21.06
2022-08-18T04:25:46.637Z,21.10
2022-08-18T04:27:48.636Z,21.10
2022-08-18T04:29:51.263Z,21.10
2022-08-18T04:31:53.246Z,21.07
2022-08-18T04:33:56.680Z,21.10
2022-08-18T04:35:58.707Z,21.10
2022-08-18T04:38:00.823Z,21.10
2022-08-18T04:40:03.032Z,21.14
2022-08-18T04:42:06.152Z,21.05
2022-08-18T04:44:10.317Z,21.11
2022-08-18T04:46:12.485Z,21.08
2022-08-18T04:48:16.387Z,21.10
2022-08-18T04:50:18.442Z,21.11
2022-08-18T04:52:41.794Z,21.11
2022-08-18T04:54:43.961Z,21.11
2022-08-18T04:56:45.861Z,21.16
2022-08-18T04:58:52.649Z,21.08
2022-08-18T05:01:00.511Z,21.08
2022-08-18T05:03:02.524Z,21.09
2022-08-18T05:05:05.490Z,21.06
2022-08-18T05:07:12.303Z,21.09
2022-08-18T05:09:16.874Z,21.07
2022-08-18T05:11:29.682Z,21.08
2022-08-18T05:13:31.604Z,21.06
2022-08-18T05:15:52.691Z,21.06
2022-08-18T05:17:56.748Z,21.11
2022-08-18T05:20:01.919Z,21.12
2022-08-18T05:22:04.651Z,21.16
2022-08-18T05:24:10.173Z,21.16
2022-08-18T05:26:16.834Z,21.17
2022-08-18T05:28:23.537Z,21.16
2022-08-18T05:30:25.820Z,21.15
2022-08-18T05:32:46.992Z,21.09
2022-08-18T05:34:51.202Z,21.18
2022-08-18T05:37:07.161Z,21.17
2022-08-18T05:39:36.575Z,21.23
2022-08-18T05:41:42.118Z,21.22
2022-08-18T05:43:51.293Z,21.22
2022-08-18T05:45:55.354Z,21.24
2022-08-18T05:48:00.567Z,21.24
2022-08-18T05:50:08.817Z,21.20
2022-08-18T05:52:18.933Z,21.22
2022-08-18T05:54:41.168Z,21.21
2022-08-18T05:56:48.062Z,21.25
2022-08-18T05:58:55.843Z,21.24
2022-08-18T06:01:03.288Z,21.19
2022-08-18T06:03:16.215Z,21.25
2022-08-18T06:05:38.607Z,21.28
2022-08-18T06:08:03.371Z,21.28
2022-08-18T06:10:06.750Z,21.31
2022-08-18T06:12:37.716Z,21.25
2022-08-18T06:14:41.434Z,21.30
2022-08-18T06:17:17.790Z,21.27
2022-08-18T06:19:49.544Z,21.31
2022-08-18T06:22:07.664Z,21.34
2022-08-18T06:24:28.175Z,21.27
2022-08-18T06:26:49.029Z,21.31
2022-08-18T06:28:53.755Z,21.24
2022-08-18T06:31:23.720Z,21.22
2022-08-18T06:33:41.193Z,21.26
2022-08-18T06:35:47.453Z,21.28
2022-08-18T06:38:33.393Z,21.26
2022-08-18T06:40:35.472Z,21.32
2022-08-18T06:42:40.379Z,21.34
2022-08-18T06:44:53.045Z,21.38
2022-08-18T06:46:57.586Z,21.41
2022-08-18T06:49:08.580Z,21.42
2022-08-18T06:51:14.973Z,21.47
2022-08-18T06:53:27.013Z,21.53
2022-08-18T06:55:50.535Z,21.58
2022-08-18T06:58:03.512Z,21.63
2022-08-18T07:00:21.552Z,21.69
2022-08-18T07:02:31.503Z,21.71
2022-08-18T07:04:39.384Z,21.71
2022-08-18T07:06:41.506Z,21.71
2022-08-18T07:08:45.414Z,21.66
2022-08-18T07:10:50.914Z,21.71
2022-08-18T07:12:52.619Z,21.65
2022-08-18T07:15:03.470Z,21.72
2022-08-18T07:17:10.889Z,21.72
2022-08-18T07:19:16.865Z,21.78
2022-08-18T07:21:34.277Z,21.76
2022-08-18T07:23:39.376Z,21.86
2022-08-18T07:25:46.540Z,21.86
2022-08-18T07:27:50.736Z,21.85
2022-08-18T07:30:05.974Z,21.92
2022-08-18T07:32:21.561Z,21.95
2022-08-18T07:34:37.244Z,21.93
2022-08-18T07:36:47.571Z,21.96
2022-08-18T07:38:54.773Z,22.01
2022-08-18T07:41:09.143Z,22.03
2022-08-18T07:43:32.840Z,22.07
2022-08-18T07:45:45.839Z,22.08
2022-08-18T07:48:38.046Z,22.12
2022-08-18T07:51:17.275Z,22.15
2022-08-18T07:54:00.875Z,22.17
2022-08-18T07:56:07.367Z,22.15
2022-08-18T07:58:34.682Z,22.18
2022-08-18T08:00:59.586Z,22.19
2022-08-18T08:03:39.019Z,22.21
2022-08-18T08:05:49.399Z,22.25
2022-08-18T08:07:53.882Z,22.27
2022-08-18T08:10:19.043Z,22.30
2022-08-18T08:12:32.972Z,22.25
2022-08-18T08:15:05.239Z,22.34
2022-08-18T08:17:26.832Z,22.34
2022-08-18T08:20:00.424Z,22.35
2022-08-18T08:22:05.887Z,22.36
2022-08-18T08:24:21.132Z,22.35
2022-08-18T08:26:48.859Z,22.36
2022-08-18T08:29:20.787Z,22.32
2022-08-18T08:31:55.101Z,22.33
2022-08-18T08:34:13.331Z,22.32
2022-08-18T08:36:23.366Z,22.28
2022-08-18T08:38:46.635Z,22.21
2022-08-18T08:40:57.881Z,22.14
2022-08-18T08:43:18.318Z,22.16
2022-08-18T08:45:32.490Z,22.15
2022-08-18T08:47:42.911Z,22.18
2022-08-18T08:50:00.914Z,22.23
2022-08-18T08:52:40.400Z,22.29
2022-08-18T08:54:53.827Z,22.32
2022-08-18T08:56:59.988Z,22.33
2022-08-18T08:59:10.182Z,22.49
2022-08-18T09:01:55.050Z,22.57
2022-08-18T09:04:16.691Z,22.59
2022-08-18T09:06:24.416Z,22.68
2022-08-18T09:09:08.487Z,22.68
2022-08-18T09:11:22.120Z,22.64
2022-08-18T09:14:01.590Z,22.85
2022-08-18T09:16:28.182Z,22.81
2022-08-18T09:18:51.501Z,22.93
2022-08-18T09:21:18.636Z,23.00
2022-08-18T09:23:25.325Z,23.10
2022-08-18T09:25:42.232Z,23.06
2022-08-18T09:28:09.934Z,23.08
2022-08-18T09:30:29.805Z,23.15
2022-08-18T09:33:18.467Z,23.16
2022-08-18T09:35:54.815Z,23.24
2022-08-18T09:38:32.211Z,23.28
2022-08-18T09:41:02.307Z,23.35
2022-08-18T09:43:25.974Z,23.34
2022-08-18T09:47:53.132Z,23.28
2022-08-18T09:50:27.594Z,23.30
2022-08-18T09:52:37.529Z,23.33
2022-08-18T09:54:53.420Z,23.36
2022-08-18T09:57:06.243Z,23.49
2022-08-18T09:59:10.899Z,23.62
2022-08-18T10:01:36.742Z,23.72
2022-08-18T10:03:38.584Z,23.88
2022-08-18T10:05:41.536Z,24.04
2022-08-18T10:07:50.108Z,24.19
2022-08-18T10:11:02.165Z,24.25
2022-08-18T10:12:49.300Z,24.37
2022-08-18T10:15:33.388Z,24.36
2022-08-18T10:18:08.866Z,24.50
2022-08-18T10:20:39.251Z,24.59
2022-08-18T10:22:47.958Z,24.63
2022-08-18T10:24:56.048Z,24.62
2022-08-18T10:26:58.788Z,24.66
2022-08-18T10:29:03.702Z,24.67
2022-08-18T10:31:10.219Z,24.61
2022-08-18T10:33:18.470Z,24.63
2022-08-18T10:35:35.932Z,24.64
2022-08-18T10:37:46.392Z,24.66
2022-08-18T10:39:53.622Z,24.58
2022-08-18T10:42:12.327Z,24.53
2022-08-18T10:44:28.826Z,24.59
2022-08-18T10:46:42.597Z,24.59
2022-08-18T10:49:13.417Z,24.54
2022-08-18T10:51:37.789Z,24.54
2022-08-18T10:54:04.761Z,24.58
2022-08-18T10:56:26.766Z,24.64
2022-08-18T10:58:40.748Z,24.80
2022-08-18T11:01:12.109Z,24.97
2022-08-18T11:03:51.343Z,25.01
2022-08-18T11:06:06.727Z,25.02
2022-08-18T11:08:31.781Z,25.03
2022-08-18T11:11:27.778Z,25.13
2022-08-18T11:13:16.387Z,25.15
2022-08-18T11:15:38.530Z,25.26
2022-08-18T11:18:04.550Z,25.39
2022-08-18T11:20:09.731Z,25.47
2022-08-18T11:22:35.660Z,25.48
2022-08-18T11:24:45.038Z,25.63
2022-08-18T11:26:53.527Z,25.82
2022-08-18T11:28:55.503Z,25.84
2022-08-18T11:30:58.304Z,25.92
2022-08-18T11:33:02.656Z,26.04
2022-08-18T11:35:12.899Z,26.14
2022-08-18T11:37:51.397Z,26.31
2022-08-18T11:39:59.039Z,26.48
2022-08-18T11:42:01.160Z,26.53
2022-08-18T11:44:05.691Z,26.61
2022-08-18T11:46:29.332Z,26.69
2022-08-18T11:48:52.098Z,26.83
2022-08-18T11:50:55.802Z,26.86
2022-08-18T11:53:18.943Z,26.99
2022-08-18T11:55:36.061Z,27.10
2022-08-18T11:57:56.177Z,27.23
2022-08-18T12:00:44.024Z,27.38
2022-08-18T12:02:46.115Z,27.36
2022-08-18T12:04:53.363Z,27.33
2022-08-18T12:07:08.370Z,27.40
2022-08-18T12:09:54.185Z,27.58
2022-08-18T12:11:55.933Z,27.71
2022-08-18T12:16:41.959Z,27.92
2022-08-18T12:18:48.420Z,28.00
2022-08-18T12:20:51.410Z,28.18
2022-08-18T12:22:57.240Z,28.27
2022-08-18T12:24:59.240Z,28.27
2022-08-18T12:27:01.129Z,28.28
2022-08-18T12:29:03.149Z,28.37
2022-08-18T12:31:14.885Z,28.36
2022-08-18T12:35:47.968Z,28.43
2022-08-18T12:38:13.395Z,28.42
2022-08-18T12:40:13.099Z,28.39
2022-08-18T12:42:15.254Z,28.25
2022-08-18T12:44:20.152Z,28.25
2022-08-18T12:46:22.516Z,28.14
2022-08-18T12:48:34.578Z,28.32
2022-08-18T12:50:50.087Z,28.34
2022-08-18T12:52:56.644Z,28.51
2022-08-18T12:54:59.219Z,28.50
2022-08-18T12:57:01.422Z,28.58
2022-08-18T12:59:06.034Z,28.60
2022-08-18T13:01:08.045Z,28.69
2022-08-18T13:03:10.131Z,28.90
2022-08-18T13:05:12.546Z,29.06
2022-08-18T13:07:16.105Z,28.98
2022-08-18T13:09:34.298Z,29.00
2022-08-18T13:11:44.056Z,29.08
2022-08-18T13:13:46.546Z,28.76
2022-08-18T13:15:58.329Z,28.80
2022-08-18T13:18:02.890Z,28.79
2022-08-18T13:20:11.312Z,28.88
2022-08-18T13:22:15.831Z,28.85
2022-08-18T13:24:22.168Z,28.84
2022-08-18T13:26:36.604Z,28.71
2022-08-18T13:28:51.579Z,28.78
2022-08-18T13:30:59.052Z,28.78
2022-08-18T13:33:05.474Z,28.75
2022-08-18T13:35:24.250Z,28.76
2022-08-18T13:37:28.669Z,28.78
2022-08-18T13:39:34.469Z,28.74
2022-08-18T13:41:36.591Z,28.69
2022-08-18T13:43:44.050Z,28.74
2022-08-18T13:45:52.970Z,28.77
2022-08-18T13:47:58.410Z,28.82
2022-08-18T13:50:05.194Z,28.93
2022-08-18T13:52:33.105Z,29.02
2022-08-18T13:54:38.852Z,29.15
2022-08-18T13:56:41.331Z,29.37
2022-08-18T13:58:53.721Z,29.58
2022-08-18T14:01:23.184Z,29.77
2022-08-18T14:03:42.661Z,29.74
2022-08-18T14:05:51.307Z,29.79
2022-08-18T14:07:54.850Z,29.92
2022-08-18T14:10:04.470Z,29.96
2022-08-18T14:12:23.252Z,30.18
2022-08-18T14:14:26.367Z,30.32
2022-08-18T14:16:30.837Z,30.59
2022-08-18T14:18:33.103Z,30.57
2022-08-18T14:20:53.870Z,30.52
2022-08-18T14:23:21.937Z,30.43
2022-08-18T14:25:44.708Z,30.43
2022-08-18T14:27:56.152Z,30.44
2022-08-18T14:29:59.091Z,30.69
2022-08-18T14:32:02.093Z,30.81
2022-08-18T14:34:04.687Z,30.81
2022-08-18T14:36:09.840Z,30.53
2022-08-18T14:38:11.855Z,30.31
2022-08-18T14:40:13.665Z,30.16
2022-08-18T14:42:16.684Z,30.28
2022-08-18T14:44:23.952Z,30.37
2022-08-18T14:46:30.460Z,30.35
2022-08-18T14:48:38.737Z,30.54
2022-08-18T14:50:49.362Z,30.41
2022-08-18T14:52:52.036Z,30.58
2022-08-18T14:54:55.484Z,30.44
2022-08-18T14:56:58.830Z,30.52
2022-08-18T14:59:00.959Z,30.47
2022-08-18T15:01:08.356Z,30.30
2022-08-18T15:03:12.287Z,30.10
2022-08-18T15:05:19.634Z,30.00
2022-08-18T15:07:26.714Z,30.02
2022-08-18T15:09:30.377Z,30.08
2022-08-18T15:11:33.740Z,30.16
2022-08-18T15:13:36.711Z,30.29
2022-08-18T15:15:42.339Z,30.38
2022-08-18T15:17:53.358Z,30.53
2022-08-18T15:20:00.347Z,30.73
2022-08-18T15:22:21.346Z,30.89
2022-08-18T15:24:42.597Z,31.19
2022-08-18T15:26:46.065Z,31.28
2022-08-18T15:28:53.514Z,31.36
2022-08-18T15:33:18.562Z,31.15
2022-08-18T15:35:26.320Z,31.04
2022-08-18T15:37:29.430Z,31.21
2022-08-18T15:39:33.823Z,30.79
2022-08-18T15:41:48.764Z,30.83
2022-08-18T15:43:51.030Z,30.71
2022-08-18T15:45:58.320Z,30.50
2022-08-18T15:48:00.379Z,30.24
2022-08-18T15:50:06.700Z,30.09
2022-08-18T15:52:26.013Z,29.94
2022-08-18T15:54:28.237Z,29.57
2022-08-18T15:56:34.359Z,29.32
2022-08-18T15:58:36.468Z,28.95
2022-08-18T16:00:45.368Z,28.86
2022-08-18T16:02:59.274Z,28.53
2022-08-18T16:05:08.428Z,28.41
2022-08-18T16:07:12.168Z,28.36
2022-08-18T16:09:14.661Z,28.14
2022-08-18T16:11:28.977Z,28.09
2022-08-18T16:13:31.394Z,27.89
2022-08-18T16:15:41.096Z,27.80
2022-08-18T16:17:43.237Z,27.67
2022-08-18T16:19:49.998Z,27.62
2022-08-18T16:21:52.531Z,27.58
2022-08-18T16:23:55.738Z,27.48
2022-08-18T16:26:02.498Z,27.25
2022-08-18T16:28:06.298Z,27.35
2022-08-18T16:30:11.278Z,27.19
2022-08-18T16:32:16.376Z,27.17
2022-08-18T16:34:18.504Z,27.20
2022-08-18T16:36:21.574Z,27.23
2022-08-18T16:38:36.574Z,27.20
2022-08-18T16:40:40.491Z,27.23
2022-08-18T16:42:42.454Z,27.39
2022-08-18T16:44:45.274Z,27.53
2022-08-18T16:46:47.153Z,27.59
2022-08-18T16:48:49.351Z,27.39
2022-08-18T16:50:51.510Z,27.48
2022-08-18T16:52:53.497Z,27.44
2022-08-18T16:54:57.503Z,27.31
2022-08-18T16:57:00.158Z,27.27
2022-08-18T16:59:20.528Z,27.26
2022-08-18T17:01:48.522Z,27.43
2022-08-18T17:04:13.408Z,27.33
2022-08-18T17:06:18.734Z,27.43
2022-08-18T17:08:36.937Z,27.37
2022-08-18T17:10:40.171Z,27.29
2022-08-18T17:12:42.090Z,27.31
2022-08-18T17:14:43.834Z,27.28
2022-08-18T17:16:46.437Z,27.30
2022-08-18T17:18:48.906Z,27.33
2022-08-18T17:20:51.733Z,27.35
2022-08-18T17:22:53.816Z,27.33
2022-08-18T17:25:01.380Z,27.32
2022-08-18T17:27:25.980Z,27.25
2022-08-18T17:29:46.006Z,27.27
2022-08-18T17:31:56.556Z,27.28
2022-08-18T17:34:04.518Z,27.22
2022-08-18T17:36:11.798Z,27.29
2022-08-18T17:38:34.246Z,27.27
2022-08-18T17:40:42.813Z,27.15
2022-08-18T17:42:44.681Z,27.14
2022-08-18T17:44:56.520Z,27.16
2022-08-18T17:47:00.726Z,27.19
2022-08-18T17:49:45.563Z,27.12
2022-08-18T17:51:52.553Z,27.05
2022-08-18T17:54:01.363Z,27.03
2022-08-18T17:56:12.568Z,26.94
2022-08-18T17:58:29.080Z,27.01
2022-08-18T18:00:33.908Z,27.03
2022-08-18T18:02:35.913Z,27.00
2022-08-18T18:04:40.392Z,27.01
2022-08-18T18:06:43.990Z,27.06
2022-08-18T18:09:04.053Z,27.01
2022-08-18T18:11:11.647Z,26.92
2022-08-18T18:13:24.563Z,26.93
2022-08-18T18:15:32.486Z,26.96
2022-08-18T18:17:39.471Z,26.96
2022-08-18T18:19:43.364Z,26.70
2022-08-18T18:22:00.522Z,26.75
2022-08-18T18:24:06.437Z,26.72
2022-08-18T18:26:22.948Z,26.64
2022-08-18T18:28:31.963Z,26.54
2022-08-18T18:30:33.785Z,26.51
2022-08-18T18:32:59.204Z,26.28
2022-08-18T18:35:21.057Z,26.38
2022-08-18T18:37:28.790Z,26.33
2022-08-18T18:39:35.709Z,26.22
2022-08-18T18:41:40.111Z,26.32
2022-08-18T18:43:46.921Z,26.19
2022-08-18T18:46:19.479Z,26.25
2022-08-18T18:48:51.116Z,26.26
2022-08-18T18:51:12.320Z,26.26
2022-08-18T18:53:22.237Z,26.23
2022-08-18T18:55:27.856Z,26.23
2022-08-18T18:57:41.713Z,26.23
2022-08-18T19:00:15.511Z,26.14
2022-08-18T19:02:58.808Z,26.04
2022-08-18T19:05:07.943Z,25.95
2022-08-18T19:07:24.274Z,25.80
2022-08-18T19:09:43.173Z,25.85
2022-08-18T19:12:03.803Z,25.70
2022-08-18T19:14:15.022Z,25.68
2022-08-18T19:16:23.646Z,25.76
2022-08-18T19:18:59.759Z,25.75
2022-08-18T19:22:04.682Z,25.60
2022-08-18T19:23:46.453Z,25.66
2022-08-18T19:25:53.547Z,25.58
2022-08-18T19:28:05.671Z,25.50
2022-08-18T19:30:13.143Z,25.44
2022-08-18T19:32:20.721Z,25.32
2022-08-18T19:34:31.393Z,25.38
2022-08-18T19:36:59.073Z,25.29
2022-08-18T19:39:13.426Z,25.21
2022-08-18T19:41:20.125Z,25.07
2022-08-18T19:43:41.201Z,24.98
2022-08-18T19:45:53.415Z,24.89
2022-08-18T19:48:01.181Z,24.80
2022-08-18T19:50:21.985Z,24.80
2022-08-18T19:52:51.311Z,24.83
2022-08-18T19:55:01.306Z,24.81
2022-08-18T19:57:03.782Z,24.85
2022-08-18T19:59:23.070Z,24.80
2022-08-18T20:01:50.710Z,24.71
2022-08-18T20:04:10.776Z,24.64
2022-08-18T20:06:51.625Z,24.57
2022-08-18T20:08:59.965Z,24.61
2022-08-18T20:11:17.375Z,24.39
2022-08-18T20:13:37.179Z,24.40
2022-08-18T20:16:10.892Z,24.31
2022-08-18T20:18:37.592Z,24.37
2022-08-18T20:20:39.822Z,24.24
2022-08-18T20:22:48.185Z,24.28
2022-08-18T20:25:06.099Z,24.14
2022-08-18T20:27:21.762Z,24.14
2022-08-18T20:29:48.644Z,24.03
2022-08-18T20:32:00.110Z,24.10
2022-08-18T20:34:14.294Z,24.17
2022-08-18T20:36:30.563Z,24.09
2022-08-18T20:38:41.983Z,24.14
2022-08-18T20:40:49.860Z,24.01
2022-08-18T20:42:57.459Z,23.95
2022-08-18T20:45:21.630Z,23.97
2022-08-18T20:48:08.108Z,23.97
2022-08-18T20:50:38.761Z,23.95
2022-08-18T20:52:46.336Z,23.89
2022-08-18T20:55:11.595Z,23.93
2022-08-18T20:57:15.013Z,23.84
2022-08-18T20:59:21.093Z,23.84
2022-08-18T21:01:27.255Z,23.84
2022-08-18T21:03:42.310Z,23.77
2022-08-18T21:05:46.117Z,23.74
2022-08-18T21:08:06.042Z,23.57
2022-08-18T21:10:31.191Z,23.53
2022-08-18T21:12:35.684Z,23.58
2022-08-18T21:14:37.616Z,23.56
2022-08-18T21:16:45.345Z,23.60
2022-08-18T21:18:59.038Z,23.56
2022-08-18T21:21:02.970Z,23.56
2022-08-18T21:23:11.839Z,23.54
2022-08-18T21:25:15.728Z,23.45
2022-08-18T21:27:35.489Z,23.50
2022-08-18T21:29:47.107Z,23.50
2022-08-18T21:31:50.856Z,23.44
2022-08-18T21:33:56.152Z,23.47
2022-08-18T21:35:58.490Z,23.50
2022-08-18T21:38:02.555Z,23.46
2022-08-18T21:40:05.675Z,23.38
2022-08-18T21:42:08.379Z,23.45
2022-08-18T21:44:28.096Z,23.46
2022-08-18T21:46:30.894Z,23.43
2022-08-18T21:48:34.315Z,23.48
2022-08-18T21:50:38.796Z,23.46
2022-08-18T21:52:56.545Z,23.46
2022-08-18T21:55:05.138Z,23.38
2022-08-18T21:57:21.970Z,23.44
2022-08-18T21:59:23.675Z,23.42
2022-08-18T22:01:30.220Z,23.36
2022-08-18T22:03:33.107Z,23.39
2022-08-18T22:05:57.985Z,23.38
2022-08-18T22:08:00.999Z,23.33
2022-08-18T22:10:40.225Z,23.36
2022-08-18T22:13:14.579Z,23.40
2022-08-18T22:15:20.823Z,23.27
2022-08-18T22:17:25.297Z,23.25
2022-08-18T22:19:27.142Z,23.18
2022-08-18T22:21:41.158Z,23.12
2022-08-18T22:24:05.207Z,23.08
2022-08-18T22:26:25.611Z,23.14
2022-08-18T22:28:31.738Z,22.97
2022-08-18T22:30:33.446Z,22.84
2022-08-18T22:32:38.603Z,22.77
2022-08-18T22:34:40.804Z,22.86
2022-08-18T22:36:47.230Z,22.75
2022-08-18T22:38:49.584Z,22.71
2022-08-18T22:40:51.661Z,22.62
2022-08-18T22:42:53.506Z,22.62
2022-08-18T22:44:58.085Z,22.61
2022-08-18T22:47:04.507Z,22.64
2022-08-18T22:49:06.158Z,22.67
2022-08-18T22:51:08.569Z,22.68
2022-08-18T22:53:10.499Z,22.69
2022-08-18T22:55:14.876Z,22.71
2022-08-18T22:57:21.173Z,22.60
2022-08-18T22:59:25.648Z,22.54
2022-08-18T23:01:30.025Z,22.59
2022-08-18T23:03:31.998Z,22.66
2022-08-18T23:05:38.831Z,22.63
2022-08-18T23:07:40.571Z,22.60
2022-08-18T23:09:42.246Z,22.59
2022-08-18T23:11:43.902Z,22.61
2022-08-18T23:13:45.599Z,22.59
2022-08-18T23:15:47.694Z,22.63
2022-08-18T23:17:49.420Z,22.50
2022-08-18T23:19:52.043Z,22.50
2022-08-18T23:21:54.101Z,22.45
2022-08-18T23:23:56.353Z,22.33
2022-08-18T23:25:58.978Z,22.39
2022-08-18T23:28:02.391Z,22.31
2022-08-18T23:30:05.285Z,22.33
2022-08-18T23:32:07.497Z,22.33
2022-08-18T23:34:11.422Z,22.31
2022-08-18T23:36:13.148Z,22.41
2022-08-18T23:38:17.396Z,22.38
2022-08-18T23:40:19.579Z,22.44
2022-08-18T23:42:23.128Z,22.45
2022-08-18T23:44:27.834Z,22.47
2022-08-18T23:46:31.949Z,22.48
2022-08-18T23:48:35.723Z,22.53
2022-08-18T23:50:44.627Z,22.54
2022-08-18T23:52:47.595Z,22.60
2022-08-18T23:54:49.454Z,22.60
2022-08-18T23:56:51.339Z,22.63
2022-08-18T23:58:56.299Z,22.53
